createdAt,value
2018-12-02T00:00:53.169Z,1006.62
2018-12-02T00:01:53.148Z,1006.63
2018-12-02T00:02:53.140Z,1006.56
2018-12-02T00:03:53.128Z,1006.53
2018-12-02T00:04:53.133Z,1006.48
2018-12-02T00:05:53.107Z,1006.50
2018-12-02T00:06:53.099Z,1006.44
2018-12-02T00:07:53.082Z,1006.51
2018-12-02T00:08:53.070Z,1006.48
2018-12-02T00:09:53.088Z,1006.44
2018-12-02T00:10:53.051Z,1006.45
2018-12-02T00:11:53.044Z,1006.37
2018-12-02T00:12:53.031Z,1006.34
2018-12-02T00:13:53.012Z,1006.42
2018-12-02T00:14:53.029Z,1006.34
2018-12-02T00:15:52.992Z,1006.35
2018-12-02T00:16:52.983Z,1006.37
2018-12-02T00:17:52.976Z,1006.32
2018-12-02T00:18:52.983Z,1006.28
2018-12-02T00:19:52.974Z,1006.32
2018-12-02T00:20:52.936Z,1006.31
2018-12-02T00:21:52.930Z,1006.28
2018-12-02T00:22:52.923Z,1006.25
2018-12-02T00:23:52.903Z,1006.22
2018-12-02T00:24:52.920Z,1006.18
2018-12-02T00:25:52.890Z,1006.20
2018-12-02T00:26:52.868Z,1006.19
2018-12-02T00:27:52.876Z,1006.20
2018-12-02T00:28:52.852Z,1006.20
2018-12-02T00:29:52.856Z,1006.19
2018-12-02T00:30:52.858Z,1006.21
2018-12-02T00:31:52.818Z,1006.28
2018-12-02T00:32:52.814Z,1006.23
2018-12-02T00:33:52.802Z,1006.26
2018-12-02T00:34:52.795Z,1006.23
2018-12-02T00:35:52.794Z,1006.22
2018-12-02T00:36:52.768Z,1006.23
2018-12-02T00:37:52.752Z,1006.20
2018-12-02T00:38:52.742Z,1006.18
2018-12-02T00:39:52.738Z,1006.17
2018-12-02T00:40:52.744Z,1006.14
2018-12-02T00:41:52.707Z,1006.06
2018-12-02T00:42:52.699Z,1006.07
2018-12-02T00:43:52.690Z,1006.07
2018-12-02T00:44:52.671Z,1006.04
2018-12-02T00:45:52.683Z,1006.01
2018-12-02T00:46:52.658Z,1006.08
2018-12-02T00:47:52.640Z,1006.06
2018-12-02T00:48:52.627Z,1006.11
2018-12-02T00:49:52.620Z,1006.08
2018-12-02T00:50:52.629Z,1006.00
2018-12-02T00:51:52.597Z,1006.05
2018-12-02T00:52:52.589Z,1006.05
2018-12-02T00:53:52.574Z,1006.02
2018-12-02T00:54:52.562Z,1006.02
2018-12-02T00:55:52.567Z,1006.01
2018-12-02T00:56:52.544Z,1006.01
2018-12-02T00:57:52.529Z,1005.97
2018-12-02T00:58:52.516Z,1005.95
2018-12-02T00:59:52.513Z,1005.98
2018-12-02T01:00:52.507Z,1005.95
2018-12-02T01:01:52.491Z,1005.95
2018-12-02T01:02:52.474Z,1005.90
2018-12-02T01:03:52.468Z,1005.93
2018-12-02T01:04:52.449Z,1005.94
2018-12-02T01:05:52.458Z,1005.97
2018-12-02T01:06:53.694Z,1005.91
2018-12-02T01:07:52.420Z,1005.93
2018-12-02T01:08:52.406Z,1005.92
2018-12-02T01:09:52.393Z,1005.92
2018-12-02T01:10:52.416Z,1005.97
2018-12-02T01:11:52.382Z,1005.92
2018-12-02T01:12:52.362Z,1005.95
2018-12-02T01:13:52.357Z,1005.92
2018-12-02T01:14:52.342Z,1005.94
2018-12-02T01:15:52.330Z,1005.90
2018-12-02T01:16:52.371Z,1005.82
2018-12-02T01:17:52.303Z,1005.84
2018-12-02T01:18:52.298Z,1005.84
2018-12-02T01:19:52.286Z,1005.82
2018-12-02T01:20:52.274Z,1005.83
2018-12-02T01:21:52.285Z,1005.81
2018-12-02T01:22:52.254Z,1005.81
2018-12-02T01:23:52.244Z,1005.74
2018-12-02T01:24:52.229Z,1005.74
2018-12-02T01:25:52.222Z,1005.82
2018-12-02T01:26:52.222Z,1005.79
2018-12-02T01:27:52.192Z,1005.72
2018-12-02T01:28:52.239Z,1005.76
2018-12-02T01:29:52.179Z,1005.80
2018-12-02T01:30:52.165Z,1005.75
2018-12-02T01:31:52.174Z,1005.71
2018-12-02T01:32:52.141Z,1005.72
2018-12-02T01:33:52.131Z,1005.68
2018-12-02T01:34:52.121Z,1005.69
2018-12-02T01:35:52.107Z,1005.71
2018-12-02T01:36:52.111Z,1005.65
2018-12-02T01:37:52.085Z,1005.69
2018-12-02T01:38:52.071Z,1005.68
2018-12-02T01:39:52.059Z,1005.66
2018-12-02T01:40:52.058Z,1005.61
2018-12-02T01:41:52.068Z,1005.59
2018-12-02T01:42:52.036Z,1005.58
2018-12-02T01:43:52.020Z,1005.57
2018-12-02T01:44:52.018Z,1005.57
2018-12-02T01:45:52.001Z,1005.64
2018-12-02T01:46:52.008Z,1005.54
2018-12-02T01:47:51.980Z,1005.51
2018-12-02T01:48:51.964Z,1005.53
2018-12-02T01:49:51.963Z,1005.50
2018-12-02T01:50:51.942Z,1005.49
2018-12-02T01:51:51.950Z,1005.41
2018-12-02T01:52:51.921Z,1005.50
2018-12-02T01:53:51.908Z,1005.46
2018-12-02T01:54:51.897Z,1005.42
2018-12-02T01:55:51.885Z,1005.36
2018-12-02T01:56:51.898Z,1005.36
2018-12-02T01:57:51.886Z,1005.34
2018-12-02T01:58:51.857Z,1005.29
2018-12-02T01:59:51.844Z,1005.23
2018-12-02T02:00:51.829Z,1005.18
2018-12-02T02:01:51.819Z,1005.23
2018-12-02T02:02:51.826Z,1005.12
2018-12-02T02:03:51.799Z,1005.17
2018-12-02T02:04:51.797Z,1005.14
2018-12-02T02:05:51.778Z,1005.08
2018-12-02T02:06:51.772Z,1005.09
2018-12-02T02:07:51.772Z,1005.07
2018-12-02T02:08:51.741Z,1005.07
2018-12-02T02:09:51.733Z,1005.05
2018-12-02T02:10:51.731Z,1005.01
2018-12-02T02:11:51.714Z,1005.04
2018-12-02T02:12:51.725Z,1005.01
2018-12-02T02:13:51.691Z,1004.97
2018-12-02T02:14:51.688Z,1004.91
2018-12-02T02:15:51.666Z,1004.95
2018-12-02T02:16:51.664Z,1004.96
2018-12-02T02:17:51.677Z,1004.91
2018-12-02T02:18:51.632Z,1004.85
2018-12-02T02:19:51.638Z,1004.86
2018-12-02T02:20:51.614Z,1004.83
2018-12-02T02:21:51.597Z,1004.84
2018-12-02T02:22:51.609Z,1004.84
2018-12-02T02:23:51.617Z,1004.78
2018-12-02T02:24:51.570Z,1004.82
2018-12-02T02:25:51.556Z,1004.83
2018-12-02T02:26:51.549Z,1004.82
2018-12-02T02:27:51.557Z,1004.83
2018-12-02T02:28:51.526Z,1004.78
2018-12-02T02:29:51.514Z,1004.80
2018-12-02T02:30:51.503Z,1004.81
2018-12-02T02:31:51.489Z,1004.80
2018-12-02T02:32:51.500Z,1004.74
2018-12-02T02:33:51.478Z,1004.72
2018-12-02T02:34:51.455Z,1004.71
2018-12-02T02:35:51.447Z,1004.67
2018-12-02T02:36:51.439Z,1004.71
2018-12-02T02:37:51.444Z,1004.71
2018-12-02T02:38:51.424Z,1004.67
2018-12-02T02:39:51.418Z,1004.63
2018-12-02T02:40:51.402Z,1004.61
2018-12-02T02:41:51.381Z,1004.65
2018-12-02T02:42:51.387Z,1004.64
2018-12-02T02:43:51.366Z,1004.62
2018-12-02T02:44:51.353Z,1004.64
2018-12-02T02:45:51.351Z,1004.62
2018-12-02T02:46:51.327Z,1004.58
2018-12-02T02:47:51.338Z,1004.60
2018-12-02T02:48:51.310Z,1004.59
2018-12-02T02:49:51.292Z,1004.58
2018-12-02T02:50:51.279Z,1004.55
2018-12-02T02:51:51.268Z,1004.58
2018-12-02T02:52:51.281Z,1004.51
2018-12-02T02:53:51.252Z,1004.56
2018-12-02T02:54:51.250Z,1004.49
2018-12-02T02:55:51.230Z,1004.52
2018-12-02T02:56:51.222Z,1004.44
2018-12-02T02:57:51.235Z,1004.40
2018-12-02T02:58:51.198Z,1004.29
2018-12-02T02:59:51.184Z,1004.26
2018-12-02T03:00:51.181Z,1004.16
2018-12-02T03:01:51.164Z,1004.13
2018-12-02T03:02:51.178Z,1004.18
2018-12-02T03:03:51.139Z,1004.16
2018-12-02T03:04:51.131Z,1004.14
2018-12-02T03:05:51.127Z,1004.12
2018-12-02T03:06:51.106Z,1004.10
2018-12-02T03:07:51.116Z,1004.07
2018-12-02T03:08:51.113Z,1004.02
2018-12-02T03:09:51.074Z,1004.07
2018-12-02T03:10:51.066Z,1004.09
2018-12-02T03:11:51.048Z,1004.12
2018-12-02T03:12:51.072Z,1004.14
2018-12-02T03:13:51.031Z,1004.12
2018-12-02T03:14:51.021Z,1004.13
2018-12-02T03:15:51.012Z,1004.10
2018-12-02T03:16:50.996Z,1004.11
2018-12-02T03:17:51.016Z,1004.10
2018-12-02T03:18:50.982Z,1004.11
2018-12-02T03:19:50.979Z,1004.10
2018-12-02T03:20:50.952Z,1004.14
2018-12-02T03:21:50.940Z,1004.13
2018-12-02T03:22:50.964Z,1004.06
2018-12-02T03:23:50.941Z,1004.06
2018-12-02T03:24:50.916Z,1004.05
2018-12-02T03:25:50.903Z,1004.02
2018-12-02T03:26:50.894Z,1004.00
2018-12-02T03:27:50.874Z,1003.94
2018-12-02T03:28:50.882Z,1004.04
2018-12-02T03:29:50.856Z,1004.01
2018-12-02T03:30:50.853Z,1004.00
2018-12-02T03:31:50.835Z,1003.93
2018-12-02T03:32:50.824Z,1003.89
2018-12-02T03:33:50.830Z,1003.92
2018-12-02T03:34:50.801Z,1003.91
2018-12-02T03:35:50.832Z,1003.88
2018-12-02T03:36:50.788Z,1003.80
2018-12-02T03:37:50.766Z,1003.85
2018-12-02T03:38:50.804Z,1003.86
2018-12-02T03:39:50.741Z,1003.92
2018-12-02T03:40:50.734Z,1003.85
2018-12-02T03:41:50.733Z,1003.80
2018-12-02T03:42:50.711Z,1003.80
2018-12-02T03:43:50.722Z,1003.83
2018-12-02T03:44:50.692Z,1003.78
2018-12-02T03:45:50.679Z,1003.77
2018-12-02T03:46:50.664Z,1003.71
2018-12-02T03:47:50.663Z,1003.69
2018-12-02T03:48:50.670Z,1003.66
2018-12-02T03:49:50.644Z,1003.64
2018-12-02T03:50:50.620Z,1003.62
2018-12-02T03:51:50.627Z,1003.58
2018-12-02T03:52:50.605Z,1003.54
2018-12-02T03:53:50.618Z,1003.51
2018-12-02T03:54:50.577Z,1003.51
2018-12-02T03:55:50.565Z,1003.47
2018-12-02T03:56:50.559Z,1003.47
2018-12-02T03:57:50.547Z,1003.49
2018-12-02T03:58:50.558Z,1003.48
2018-12-02T03:59:50.524Z,1003.47
2018-12-02T04:00:50.514Z,1003.48
2018-12-02T04:01:50.499Z,1003.49
2018-12-02T04:02:50.505Z,1003.52
2018-12-02T04:03:50.503Z,1003.49
2018-12-02T04:04:50.474Z,1003.51
2018-12-02T04:05:50.462Z,1003.47
2018-12-02T04:06:50.457Z,1003.47
2018-12-02T04:07:50.442Z,1003.47
2018-12-02T04:08:50.444Z,1003.44
2018-12-02T04:09:50.416Z,1003.42
2018-12-02T04:10:50.415Z,1003.38
2018-12-02T04:11:50.390Z,1003.43
2018-12-02T04:12:50.380Z,1003.39
2018-12-02T04:13:50.370Z,1003.32
2018-12-02T04:14:50.377Z,1003.34
2018-12-02T04:15:50.360Z,1003.30
2018-12-02T04:16:50.351Z,1003.25
2018-12-02T04:17:50.324Z,1003.20
2018-12-02T04:18:50.321Z,1003.17
2018-12-02T04:19:50.354Z,1003.18
2018-12-02T04:20:50.288Z,1003.18
2018-12-02T04:21:50.289Z,1003.17
2018-12-02T04:22:50.270Z,1003.14
2018-12-02T04:23:50.270Z,1003.16
2018-12-02T04:24:50.262Z,1003.13
2018-12-02T04:25:50.239Z,1003.16
2018-12-02T04:26:50.228Z,1003.12
2018-12-02T04:27:50.222Z,1003.16
2018-12-02T04:28:50.263Z,1003.14
2018-12-02T04:29:50.210Z,1003.11
2018-12-02T04:30:50.182Z,1003.11
2018-12-02T04:31:50.177Z,1003.09
2018-12-02T04:32:50.168Z,1003.09
2018-12-02T04:33:50.178Z,1003.14
2018-12-02T04:34:50.150Z,1003.08
2018-12-02T04:35:50.126Z,1003.04
2018-12-02T04:36:50.119Z,1002.99
2018-12-02T04:37:50.108Z,1002.94
2018-12-02T04:38:50.107Z,1003.02
2018-12-02T04:39:50.106Z,1002.96
2018-12-02T04:40:50.068Z,1002.88
2018-12-02T04:41:50.055Z,1002.88
2018-12-02T04:42:50.055Z,1002.81
2018-12-02T04:43:50.040Z,1002.76
2018-12-02T04:44:50.049Z,1002.67
2018-12-02T04:45:50.014Z,1002.67
2018-12-02T04:46:50.000Z,1002.66
2018-12-02T04:47:49.993Z,1002.54
2018-12-02T04:48:49.982Z,1002.47
2018-12-02T04:49:50.008Z,1002.49
2018-12-02T04:50:49.974Z,1002.46
2018-12-02T04:51:49.950Z,1002.53
2018-12-02T04:52:49.936Z,1002.49
2018-12-02T04:53:49.934Z,1002.45
2018-12-02T04:54:49.946Z,1002.41
2018-12-02T04:55:49.908Z,1002.40
2018-12-02T04:56:49.888Z,1002.36
2018-12-02T04:57:49.882Z,1002.37
2018-12-02T04:58:49.871Z,1002.36
2018-12-02T04:59:49.882Z,1002.40
2018-12-02T05:00:49.881Z,1002.36
2018-12-02T05:01:49.852Z,1002.35
2018-12-02T05:02:49.824Z,1002.32
2018-12-02T05:03:49.811Z,1002.24
2018-12-02T05:04:49.803Z,1002.16
2018-12-02T05:05:49.821Z,1002.10
2018-12-02T05:06:49.789Z,1002.10
2018-12-02T05:07:49.792Z,1002.02
2018-12-02T05:08:49.759Z,1002.04
2018-12-02T05:09:49.753Z,1002.03
2018-12-02T05:10:49.756Z,1002.02
2018-12-02T05:11:49.730Z,1002.01
2018-12-02T05:12:49.718Z,1002.02
2018-12-02T05:13:49.707Z,1002.01
2018-12-02T05:14:49.693Z,1001.99
2018-12-02T05:15:49.732Z,1002.06
2018-12-02T05:16:49.674Z,1002.04
2018-12-02T05:17:49.678Z,1002.04
2018-12-02T05:18:49.655Z,1002.03
2018-12-02T05:19:49.637Z,1002.04
2018-12-02T05:20:49.646Z,1001.94
2018-12-02T05:21:49.620Z,1001.97
2018-12-02T05:22:49.609Z,1001.97
2018-12-02T05:23:49.599Z,1001.98
2018-12-02T05:24:49.590Z,1002.03
2018-12-02T05:25:49.587Z,1002.06
2018-12-02T05:26:49.565Z,1002.05
2018-12-02T05:27:49.569Z,1002.04
2018-12-02T05:28:49.558Z,1002.07
2018-12-02T05:29:49.542Z,1002.01
2018-12-02T05:30:49.529Z,1001.96
2018-12-02T05:31:49.509Z,1002.01
2018-12-02T05:32:49.495Z,1002.08
2018-12-02T05:33:49.509Z,1002.02
2018-12-02T05:34:49.473Z,1002.09
2018-12-02T05:35:49.476Z,1002.05
2018-12-02T05:36:49.448Z,1002.07
2018-12-02T05:37:49.441Z,1002.02
2018-12-02T05:38:49.430Z,1002.03
2018-12-02T05:39:49.413Z,1001.99
2018-12-02T05:40:49.424Z,1002.04
2018-12-02T05:41:49.396Z,1002.01
2018-12-02T05:42:49.382Z,1002.03
2018-12-02T05:43:49.373Z,1002.05
2018-12-02T05:44:49.359Z,1002.05
2018-12-02T05:45:49.376Z,1002.10
2018-12-02T05:46:49.346Z,1002.10
2018-12-02T05:47:49.334Z,1002.07
2018-12-02T05:48:49.318Z,1002.05
2018-12-02T05:49:49.316Z,1001.99
2018-12-02T05:50:49.319Z,1002.01
2018-12-02T05:51:49.285Z,1002.00
2018-12-02T05:52:49.275Z,1001.95
2018-12-02T05:53:49.264Z,1001.88
2018-12-02T05:54:49.250Z,1001.96
2018-12-02T05:55:49.260Z,1001.91
2018-12-02T05:56:49.238Z,1001.85
2018-12-02T05:57:49.220Z,1001.86
2018-12-02T05:58:49.210Z,1001.83
2018-12-02T05:59:49.194Z,1001.87
2018-12-02T06:00:49.214Z,1001.88
2018-12-02T06:01:49.175Z,1001.89
2018-12-02T06:02:49.164Z,1001.82
2018-12-02T06:03:49.161Z,1001.85
2018-12-02T06:04:49.141Z,1001.72
2018-12-02T06:05:49.174Z,1001.69
2018-12-02T06:06:49.116Z,1001.66
2018-12-02T06:07:49.110Z,1001.73
2018-12-02T06:08:49.104Z,1001.72
2018-12-02T06:09:49.084Z,1001.74
2018-12-02T06:10:49.097Z,1001.64
2018-12-02T06:11:49.063Z,1001.61
2018-12-02T06:12:49.055Z,1001.61
2018-12-02T06:13:49.037Z,1001.54
2018-12-02T06:14:49.043Z,1001.55
2018-12-02T06:15:49.046Z,1001.57
2018-12-02T06:16:49.006Z,1001.50
2018-12-02T06:17:49.012Z,1001.52
2018-12-02T06:18:48.984Z,1001.48
2018-12-02T06:19:48.988Z,1001.52
2018-12-02T06:20:48.962Z,1001.46
2018-12-02T06:21:48.976Z,1001.48
2018-12-02T06:22:48.942Z,1001.47
2018-12-02T06:23:48.929Z,1001.41
2018-12-02T06:24:48.919Z,1001.46
2018-12-02T06:25:49.415Z,1001.45
2018-12-02T06:26:48.920Z,1001.47
2018-12-02T06:27:48.885Z,1001.54
2018-12-02T06:28:48.880Z,1001.56
2018-12-02T06:29:48.870Z,1001.56
2018-12-02T06:30:48.859Z,1001.47
2018-12-02T06:31:48.858Z,1001.53
2018-12-02T06:32:48.827Z,1001.44
2018-12-02T06:33:48.817Z,1001.51
2018-12-02T06:34:48.815Z,1001.51
2018-12-02T06:35:48.801Z,1001.46
2018-12-02T06:36:48.803Z,1001.49
2018-12-02T06:37:48.776Z,1001.49
2018-12-02T06:38:48.763Z,1001.49
2018-12-02T06:39:48.750Z,1001.49
2018-12-02T06:40:48.744Z,1001.56
2018-12-02T06:41:48.756Z,1001.62
2018-12-02T06:42:48.717Z,1001.66
2018-12-02T06:43:48.714Z,1001.63
2018-12-02T06:44:48.700Z,1001.65
2018-12-02T06:45:48.695Z,1001.64
2018-12-02T06:46:48.690Z,1001.58
2018-12-02T06:47:48.665Z,1001.56
2018-12-02T06:48:48.672Z,1001.59
2018-12-02T06:49:48.648Z,1001.61
2018-12-02T06:50:48.630Z,1001.58
2018-12-02T06:51:48.644Z,1001.55
2018-12-02T06:52:48.607Z,1001.51
2018-12-02T06:53:48.598Z,1001.45
2018-12-02T06:54:48.628Z,1001.41
2018-12-02T06:55:48.576Z,1001.35
2018-12-02T06:56:48.609Z,1001.43
2018-12-02T06:57:48.550Z,1001.44
2018-12-02T06:58:48.544Z,1001.48
2018-12-02T06:59:48.548Z,1001.47
2018-12-02T07:00:48.522Z,1001.44
2018-12-02T07:01:48.525Z,1001.46
2018-12-02T07:02:48.497Z,1001.46
2018-12-02T07:03:48.482Z,1001.49
2018-12-02T07:04:48.476Z,1001.47
2018-12-02T07:05:48.485Z,1001.46
2018-12-02T07:06:48.457Z,1001.42
2018-12-02T07:07:48.460Z,1001.34
2018-12-02T07:08:48.429Z,1001.36
2018-12-02T07:09:48.424Z,1001.35
2018-12-02T07:10:48.410Z,1001.34
2018-12-02T07:11:48.407Z,1001.29
2018-12-02T07:12:48.424Z,1001.24
2018-12-02T07:13:48.378Z,1001.24
2018-12-02T07:14:48.362Z,1001.22
2018-12-02T07:15:48.354Z,1001.22
2018-12-02T07:16:48.356Z,1001.22
2018-12-02T07:17:48.354Z,1001.25
2018-12-02T07:18:48.326Z,1001.16
2018-12-02T07:19:48.309Z,1001.13
2018-12-02T07:20:48.306Z,1001.12
2018-12-02T07:21:48.290Z,1001.03
2018-12-02T07:22:48.308Z,1000.99
2018-12-02T07:23:48.271Z,1001.01
2018-12-02T07:24:48.273Z,1000.94
2018-12-02T07:25:48.242Z,1001.03
2018-12-02T07:26:48.258Z,1000.98
2018-12-02T07:27:48.238Z,1001.07
2018-12-02T07:28:48.224Z,1000.96
2018-12-02T07:29:48.203Z,1001.03
2018-12-02T07:30:48.194Z,1001.04
2018-12-02T07:31:48.174Z,1001.03
2018-12-02T07:32:48.186Z,1001.00
2018-12-02T07:33:48.166Z,1000.88
2018-12-02T07:34:48.149Z,1000.85
2018-12-02T07:35:48.135Z,1000.83
2018-12-02T07:36:48.138Z,1000.82
2018-12-02T07:37:48.134Z,1000.87
2018-12-02T07:38:48.100Z,1000.84
2018-12-02T07:39:48.092Z,1000.86
2018-12-02T07:40:48.084Z,1000.85
2018-12-02T07:41:48.068Z,1000.78
2018-12-02T07:42:48.085Z,1000.71
2018-12-02T07:43:48.046Z,1000.67
2018-12-02T07:44:48.045Z,1000.75
2018-12-02T07:45:48.041Z,1000.71
2018-12-02T07:46:48.016Z,1000.70
2018-12-02T07:47:48.027Z,1000.60
2018-12-02T07:48:47.992Z,1000.63
2018-12-02T07:49:47.980Z,1000.73
2018-12-02T07:50:47.975Z,1000.69
2018-12-02T07:51:47.958Z,1000.70
2018-12-02T07:52:47.982Z,1000.58
2018-12-02T07:53:47.935Z,1000.52
2018-12-02T07:54:47.923Z,1000.50
2018-12-02T07:55:47.911Z,1000.49
2018-12-02T07:56:47.913Z,1000.49
2018-12-02T07:57:47.892Z,1000.44
2018-12-02T07:58:47.906Z,1000.42
2018-12-02T07:59:47.870Z,1000.45
2018-12-02T08:00:47.855Z,1000.48
2018-12-02T08:01:47.851Z,1000.52
2018-12-02T08:02:47.834Z,1000.50
2018-12-02T08:03:47.840Z,1000.47
2018-12-02T08:04:47.824Z,1000.45
2018-12-02T08:05:47.803Z,1000.45
2018-12-02T08:06:47.791Z,1000.40
2018-12-02T08:07:47.793Z,1000.39
2018-12-02T08:08:47.790Z,1000.43
2018-12-02T08:09:47.784Z,1000.41
2018-12-02T08:10:47.770Z,1000.32
2018-12-02T08:11:47.742Z,1000.35
2018-12-02T08:12:47.726Z,1000.34
2018-12-02T08:13:47.861Z,1000.37
2018-12-02T08:14:47.707Z,1000.29
2018-12-02T08:15:47.703Z,1000.34
2018-12-02T08:16:47.683Z,1000.34
2018-12-02T08:17:47.671Z,1000.28
2018-12-02T08:18:47.678Z,1000.28
2018-12-02T08:19:47.654Z,1000.28
2018-12-02T08:20:47.653Z,1000.25
2018-12-02T08:21:47.628Z,1000.26
2018-12-02T08:22:51.335Z,1000.19
2018-12-02T08:23:47.651Z,1000.18
2018-12-02T08:24:47.596Z,1000.18
2018-12-02T08:25:47.588Z,1000.20
2018-12-02T08:26:47.570Z,1000.18
2018-12-02T08:27:47.564Z,1000.17
2018-12-02T08:28:47.553Z,1000.15
2018-12-02T08:29:47.554Z,1000.11
2018-12-02T08:30:47.534Z,1000.09
2018-12-02T08:31:47.513Z,1000.06
2018-12-02T08:32:47.508Z,1000.07
2018-12-02T08:33:47.515Z,1000.05
2018-12-02T08:34:47.494Z,1000.06
2018-12-02T08:35:47.476Z,1000.06
2018-12-02T08:36:47.455Z,1000.05
2018-12-02T08:37:47.459Z,1000.01
2018-12-02T08:38:47.447Z,999.99
2018-12-02T08:39:47.449Z,999.99
2018-12-02T08:40:47.410Z,999.95
2018-12-02T08:41:47.406Z,999.98
2018-12-02T08:42:47.391Z,999.97
2018-12-02T08:43:47.379Z,1000.03
2018-12-02T08:44:47.386Z,999.99
2018-12-02T08:45:47.361Z,1000.03
2018-12-02T08:46:47.347Z,999.98
2018-12-02T08:47:47.349Z,999.95
2018-12-02T08:48:47.329Z,999.95
2018-12-02T08:49:47.329Z,999.96
2018-12-02T08:50:47.309Z,999.89
2018-12-02T08:51:47.290Z,999.86
2018-12-02T08:52:47.284Z,999.88
2018-12-02T08:53:47.266Z,999.83
2018-12-02T08:54:47.276Z,999.85
2018-12-02T08:55:47.247Z,999.86
2018-12-02T08:56:47.248Z,999.85
2018-12-02T08:57:47.233Z,999.84
2018-12-02T08:58:47.225Z,999.85
2018-12-02T08:59:47.228Z,999.82
2018-12-02T09:00:47.202Z,999.80
2018-12-02T09:01:47.180Z,999.78
2018-12-02T09:02:47.183Z,999.79
2018-12-02T09:03:47.164Z,999.81
2018-12-02T09:04:47.169Z,999.79
2018-12-02T09:05:47.139Z,999.78
2018-12-02T09:06:47.124Z,999.75
2018-12-02T09:07:47.119Z,999.73
2018-12-02T09:08:47.100Z,999.73
2018-12-02T09:09:47.109Z,999.78
2018-12-02T09:10:47.085Z,999.72
2018-12-02T09:11:47.068Z,999.68
2018-12-02T09:12:47.067Z,999.72
2018-12-02T09:13:47.068Z,999.69
2018-12-02T09:14:47.068Z,999.68
2018-12-02T09:15:47.027Z,999.69
2018-12-02T09:16:47.014Z,999.64
2018-12-02T09:17:47.005Z,999.66
2018-12-02T09:18:46.992Z,999.70
2018-12-02T09:19:47.003Z,999.66
2018-12-02T09:20:46.975Z,999.65
2018-12-02T09:21:46.954Z,999.63
2018-12-02T09:22:46.944Z,999.62
2018-12-02T09:23:47.528Z,999.54
2018-12-02T09:24:46.947Z,999.47
2018-12-02T09:25:46.916Z,999.49
2018-12-02T09:26:46.906Z,999.46
2018-12-02T09:27:46.892Z,999.47
2018-12-02T09:28:46.878Z,999.48
2018-12-02T09:29:46.902Z,999.46
2018-12-02T09:30:46.860Z,999.50
2018-12-02T09:31:46.847Z,999.45
2018-12-02T09:32:46.846Z,999.45
2018-12-02T09:33:46.829Z,999.42
2018-12-02T09:34:46.830Z,999.49
2018-12-02T09:35:46.803Z,999.36
2018-12-02T09:36:46.813Z,999.38
2018-12-02T09:37:46.794Z,999.35
2018-12-02T09:38:46.768Z,999.32
2018-12-02T09:39:46.758Z,999.27
2018-12-02T09:40:46.794Z,999.26
2018-12-02T09:41:46.758Z,999.27
2018-12-02T09:42:46.726Z,999.20
2018-12-02T09:43:46.715Z,999.24
2018-12-02T09:44:46.701Z,999.25
2018-12-02T09:45:46.710Z,999.18
2018-12-02T09:46:46.680Z,999.17
2018-12-02T09:47:46.672Z,999.15
2018-12-02T09:48:46.660Z,999.14
2018-12-02T09:49:46.648Z,999.11
2018-12-02T09:50:46.661Z,999.09
2018-12-02T09:51:46.626Z,999.06
2018-12-02T09:52:46.610Z,999.08
2018-12-02T09:53:46.603Z,999.09
2018-12-02T09:54:46.604Z,999.07
2018-12-02T09:55:46.600Z,999.04
2018-12-02T09:56:46.577Z,999.07
2018-12-02T09:57:46.556Z,999.08
2018-12-02T09:58:46.544Z,999.02
2018-12-02T09:59:46.533Z,999.06
2018-12-02T10:00:46.547Z,999.01
2018-12-02T10:01:46.510Z,999.04
2018-12-02T10:02:46.502Z,999.02
2018-12-02T10:03:46.494Z,998.96
2018-12-02T10:04:46.477Z,998.91
2018-12-02T10:05:46.494Z,998.92
2018-12-02T10:06:46.463Z,998.87
2018-12-02T10:07:46.448Z,998.91
2018-12-02T10:08:46.438Z,998.91
2018-12-02T10:09:46.424Z,998.81
2018-12-02T10:10:46.436Z,998.80
2018-12-02T10:11:46.411Z,998.82
2018-12-02T10:12:46.399Z,998.88
2018-12-02T10:13:46.384Z,998.80
2018-12-02T10:14:46.376Z,998.88
2018-12-02T10:15:46.394Z,998.80
2018-12-02T10:16:46.353Z,998.77
2018-12-02T10:17:46.340Z,998.73
2018-12-02T10:18:46.323Z,998.76
2018-12-02T10:19:46.314Z,998.65
2018-12-02T10:20:46.319Z,998.68
2018-12-02T10:21:46.297Z,998.71
2018-12-02T10:22:46.278Z,998.68
2018-12-02T10:23:46.272Z,998.62
2018-12-02T10:24:46.260Z,998.63
2018-12-02T10:25:46.277Z,998.64
2018-12-02T10:26:46.238Z,998.62
2018-12-02T10:27:46.229Z,998.59
2018-12-02T10:28:46.218Z,998.58
2018-12-02T10:29:46.203Z,998.56
2018-12-02T10:30:46.241Z,998.55
2018-12-02T10:31:46.182Z,998.52
2018-12-02T10:32:46.167Z,998.53
2018-12-02T10:33:46.163Z,998.49
2018-12-02T10:34:46.156Z,998.41
2018-12-02T10:35:46.166Z,998.44
2018-12-02T10:36:46.130Z,998.41
2018-12-02T10:37:46.117Z,998.45
2018-12-02T10:38:46.103Z,998.41
2018-12-02T10:39:46.108Z,998.39
2018-12-02T10:40:46.102Z,998.33
2018-12-02T10:41:46.071Z,998.36
2018-12-02T10:42:46.058Z,998.31
2018-12-02T10:43:46.047Z,998.33
2018-12-02T10:44:46.038Z,998.29
2018-12-02T10:45:46.055Z,998.26
2018-12-02T10:46:46.016Z,998.29
2018-12-02T10:47:46.001Z,998.27
2018-12-02T10:48:45.992Z,998.23
2018-12-02T10:49:45.988Z,998.22
2018-12-02T10:50:45.990Z,998.23
2018-12-02T10:51:45.969Z,998.17
2018-12-02T10:52:45.950Z,998.21
2018-12-02T10:53:45.940Z,998.20
2018-12-02T10:54:45.926Z,998.20
2018-12-02T10:55:45.932Z,998.18
2018-12-02T10:56:45.901Z,998.18
2018-12-02T10:57:45.893Z,998.12
2018-12-02T10:58:45.879Z,998.17
2018-12-02T10:59:45.867Z,998.13
2018-12-02T11:00:45.888Z,998.12
2018-12-02T11:01:45.855Z,998.08
2018-12-02T11:02:45.862Z,998.11
2018-12-02T11:03:45.828Z,998.09
2018-12-02T11:04:45.837Z,998.11
2018-12-02T11:05:45.802Z,998.06
2018-12-02T11:06:45.809Z,998.08
2018-12-02T11:07:45.826Z,998.05
2018-12-02T11:08:45.764Z,998.04
2018-12-02T11:09:45.759Z,998.04
2018-12-02T11:10:45.744Z,998.02
2018-12-02T11:11:45.748Z,998.03
2018-12-02T11:12:45.721Z,997.95
2018-12-02T11:13:45.715Z,997.96
2018-12-02T11:14:45.709Z,997.92
2018-12-02T11:15:45.711Z,997.91
2018-12-02T11:16:45.713Z,997.92
2018-12-02T11:17:45.677Z,997.93
2018-12-02T11:18:45.655Z,997.92
2018-12-02T11:19:45.652Z,997.91
2018-12-02T11:20:45.680Z,997.91
2018-12-02T11:21:45.647Z,997.80
2018-12-02T11:22:45.625Z,997.85
2018-12-02T11:23:45.615Z,997.82
2018-12-02T11:24:45.594Z,997.82
2018-12-02T11:25:45.594Z,997.80
2018-12-02T11:26:45.588Z,997.80
2018-12-02T11:27:45.556Z,997.73
2018-12-02T11:28:45.605Z,997.72
2018-12-02T11:29:45.540Z,997.71
2018-12-02T11:30:45.528Z,997.68
2018-12-02T11:31:45.545Z,997.69
2018-12-02T11:32:45.502Z,997.67
2018-12-02T11:33:45.495Z,997.61
2018-12-02T11:34:45.487Z,997.59
2018-12-02T11:35:45.471Z,997.61
2018-12-02T11:36:45.477Z,997.56
2018-12-02T11:37:45.446Z,997.55
2018-12-02T11:38:45.439Z,997.60
2018-12-02T11:39:45.422Z,997.60
2018-12-02T11:40:45.409Z,997.56
2018-12-02T11:41:45.422Z,997.55
2018-12-02T11:42:45.392Z,997.56
2018-12-02T11:43:45.377Z,997.54
2018-12-02T11:44:45.365Z,997.56
2018-12-02T11:45:45.358Z,997.52
2018-12-02T11:46:45.370Z,997.53
2018-12-02T11:47:45.340Z,997.53
2018-12-02T11:48:45.321Z,997.51
2018-12-02T11:49:45.315Z,997.49
2018-12-02T11:50:45.319Z,997.52
2018-12-02T11:51:45.284Z,997.53
2018-12-02T11:52:45.307Z,997.54
2018-12-02T11:53:45.266Z,997.48
2018-12-02T11:54:45.256Z,997.51
2018-12-02T11:55:45.244Z,997.46
2018-12-02T11:56:45.257Z,997.46
2018-12-02T11:57:45.240Z,997.44
2018-12-02T11:58:45.214Z,997.42
2018-12-02T11:59:45.202Z,997.40
2018-12-02T12:00:45.194Z,997.37
2018-12-02T12:01:45.176Z,997.39
2018-12-02T12:02:45.192Z,997.39
2018-12-02T12:03:45.163Z,997.32
2018-12-02T12:04:45.154Z,997.35
2018-12-02T12:05:45.148Z,997.35
2018-12-02T12:06:45.122Z,997.32
2018-12-02T12:07:45.131Z,997.30
2018-12-02T12:08:45.106Z,997.36
2018-12-02T12:09:45.093Z,997.29
2018-12-02T12:10:45.086Z,997.25
2018-12-02T12:11:45.073Z,997.26
2018-12-02T12:12:45.119Z,997.25